LVLRG RJSA-RJCH

Flight info

Callsign LVLRG
Flight time 0h 32m
Altitude 8000
Route MRE V31 HWE
Aircraft B350/L-SDF/C

Departure

Time 2026-05-04 02:50
Airport Aomori Airport (RJSA)

Arrival

Time 2026-05-04 03:23
Airport Hakodate Airport (RJCH)
Time Latitude Longitude Altitude Speed Heading
2026-05-04 02:36 40.74226 140.69661 667 ft 0 kts 90°
2026-05-04 02:36 40.74226 140.69662 667 ft 0 kts 206°
2026-05-04 02:48 40.74213 140.69655 667 ft 5 kts 185°
2026-05-04 02:48 40.74197 140.69713 667 ft 11 kts 91°
2026-05-04 02:49 40.74190 140.69836 668 ft 16 kts 92°
2026-05-04 02:49 40.74213 140.69985 668 ft 18 kts 45°
2026-05-04 02:49 40.74254 140.70127 669 ft 15 kts 123°
2026-05-04 02:49 40.74203 140.70197 669 ft 10 kts 140°
2026-05-04 02:50 40.74129 140.70201 669 ft 16 kts 226°
2026-05-04 02:50 40.73910 140.69835 665 ft 84 kts 232°
2026-05-04 02:50 40.73461 140.69162 959 ft 105 kts 232°
2026-05-04 02:50 40.72939 140.68425 1454 ft 115 kts 232°
2026-05-04 02:51 40.72488 140.67404 1686 ft 143 kts 258°
2026-05-04 02:51 40.72819 140.66096 2061 ft 172 kts 304°
2026-05-04 02:51 40.73924 140.65353 2697 ft 191 kts 343°
2026-05-04 02:51 40.75266 140.65626 3372 ft 199 kts
2026-05-04 02:52 40.76624 140.66147 3756 ft 212 kts
2026-05-04 02:52 40.78069 140.66654 4183 ft 209 kts 353°
2026-05-04 02:52 40.79378 140.66304 4723 ft 180 kts 314°
2026-05-04 02:52 40.80296 140.65329 5411 ft 164 kts 305°
2026-05-04 02:53 40.81133 140.64336 5983 ft 160 kts 298°
2026-05-04 02:53 40.81841 140.63167 6359 ft 166 kts 294°
2026-05-04 02:53 40.82611 140.61991 6841 ft 171 kts 300°
2026-05-04 02:53 40.83431 140.60876 7432 ft 168 kts 301°
2026-05-04 02:54 40.84353 140.59800 7716 ft 185 kts 306°
2026-05-04 02:54 40.85350 140.58656 7880 ft 198 kts 306°
2026-05-04 02:54 40.86410 140.57381 7859 ft 214 kts 306°
2026-05-04 02:54 40.87458 140.55956 7915 ft 212 kts 291°
2026-05-04 02:55 40.86881 140.52654 8051 ft 213 kts 220°
2026-05-04 02:55 40.85430 140.52050 8081 ft 237 kts 191°
2026-05-04 02:55 40.83734 140.52633 8117 ft 267 kts 161°
2026-05-04 02:56 40.82308 140.54314 8102 ft 293 kts 136°
2026-05-04 02:56 40.81289 140.56720 8100 ft 304 kts 124°
2026-05-04 02:56 40.80333 140.59210 8084 ft 302 kts 127°
2026-05-04 02:56 40.79240 140.61575 8009 ft 303 kts 131°
2026-05-04 02:57 40.78040 140.63829 8029 ft 298 kts 136°
2026-05-04 02:57 40.76816 140.66029 8056 ft 298 kts 135°
2026-05-04 02:57 40.75653 140.68329 8005 ft 308 kts 124°
2026-05-04 02:57 40.75149 140.71123 8060 ft 322 kts 93°
2026-05-04 02:58 40.75714 140.73979 8033 ft 328 kts 57°
2026-05-04 02:58 40.77280 140.76067 7996 ft 317 kts 23°
2026-05-04 02:58 40.79294 140.76971 7978 ft 298 kts 356°
2026-05-04 02:58 40.81308 140.76910 7978 ft 287 kts 345°
2026-05-04 02:59 40.83257 140.76541 7970 ft 279 kts 336°
2026-05-04 02:59 40.85142 140.75933 7971 ft 278 kts 335°
2026-05-04 02:59 40.87011 140.75289 7956 ft 277 kts 334°
2026-05-04 02:59 40.88918 140.74602 7890 ft 279 kts 334°
2026-05-04 03:00 40.90746 140.73911 7890 ft 277 kts 333°
2026-05-04 03:00 40.92595 140.73190 7885 ft 278 kts 334°
2026-05-04 03:00 40.94492 140.72604 7912 ft 281 kts 338°
2026-05-04 03:00 40.96443 140.72220 7890 ft 288 kts 346°
2026-05-04 03:01 40.98445 140.72058 7893 ft 289 kts 347°
2026-05-04 03:01 41.00480 140.72050 7871 ft 295 kts 353°
2026-05-04 03:01 41.02541 140.72362 7893 ft 301 kts
2026-05-04 03:01 41.04586 140.72915 7961 ft 300 kts
2026-05-04 03:02 41.06641 140.73512 7983 ft 301 kts
2026-05-04 03:02 41.08677 140.74120 8026 ft 300 kts
2026-05-04 03:02 41.10712 140.74726 8063 ft 300 kts
2026-05-04 03:02 41.12736 140.75320 8023 ft 303 kts
2026-05-04 03:03 41.14797 140.75934 8031 ft 303 kts
2026-05-04 03:03 41.16878 140.76381 8074 ft 296 kts 357°
2026-05-04 03:03 41.18903 140.76682 8094 ft 297 kts 357°
2026-05-04 03:03 41.20963 140.76942 8143 ft 296 kts 355°
2026-05-04 03:04 41.23018 140.77185 8115 ft 298 kts 356°
2026-05-04 03:04 41.25089 140.77465 8117 ft 299 kts 357°
2026-05-04 03:04 41.27159 140.77780 8110 ft 301 kts 358°
2026-05-04 03:04 41.29239 140.78106 8162 ft 300 kts 358°
2026-05-04 03:05 41.31309 140.78431 8125 ft 301 kts 358°
2026-05-04 03:05 41.33398 140.78755 8093 ft 301 kts 358°
2026-05-04 03:05 41.35474 140.79073 8122 ft 300 kts 358°
2026-05-04 03:05 41.37545 140.79385 8119 ft 300 kts 357°
2026-05-04 03:06 41.39621 140.79685 8088 ft 300 kts 357°
2026-05-04 03:06 41.41670 140.79980 8084 ft 300 kts 357°
2026-05-04 03:06 41.43748 140.80297 8103 ft 300 kts 358°
2026-05-04 03:06 41.45821 140.80645 8114 ft 300 kts 359°
2026-05-04 03:07 41.47921 140.81023 8090 ft 301 kts 359°
2026-05-04 03:07 41.49960 140.81394 8064 ft 298 kts 359°
2026-05-04 03:07 41.52013 140.81771 7889 ft 298 kts 359°
2026-05-04 03:07 41.54085 140.82158 7617 ft 302 kts 360°
2026-05-04 03:08 41.56279 140.82577 7347 ft 302 kts 359°
2026-05-04 03:08 41.58255 140.82948 7063 ft 303 kts 359°
2026-05-04 03:08 41.60333 140.83346 6824 ft 300 kts 360°
2026-05-04 03:08 41.62391 140.83757 6533 ft 300 kts 359°
2026-05-04 03:09 41.64457 140.84151 6197 ft 300 kts 359°
2026-05-04 03:09 41.66528 140.84519 5909 ft 298 kts 358°
2026-05-04 03:09 41.68579 140.84860 5667 ft 295 kts 358°
2026-05-04 03:09 41.70609 140.85159 5413 ft 292 kts 356°
2026-05-04 03:10 41.72625 140.85412 5176 ft 289 kts 355°
2026-05-04 03:10 41.74618 140.85629 5034 ft 286 kts 355°
2026-05-04 03:10 41.76555 140.86310 4928 ft 298 kts 23°
2026-05-04 03:10 41.78077 140.88258 4702 ft 311 kts 55°
2026-05-04 03:11 41.78798 140.90985 4360 ft 314 kts 87°
2026-05-04 03:11 41.78533 140.93826 4084 ft 302 kts 117°
2026-05-04 03:11 41.77442 140.96078 3858 ft 278 kts 147°
2026-05-04 03:11 41.75859 140.97334 3645 ft 256 kts 164°
2026-05-04 03:12 41.74299 140.98319 3379 ft 243 kts 165°
2026-05-04 03:12 41.72771 140.99274 2980 ft 242 kts 165°
2026-05-04 03:12 41.71293 141.00253 2743 ft 230 kts 165°
2026-05-04 03:12 41.69899 141.01150 2551 ft 219 kts 166°
2026-05-04 03:13 41.68536 141.01968 2529 ft 205 kts 174°
2026-05-04 03:13 41.67217 141.02513 2594 ft 195 kts 175°
2026-05-04 03:13 41.65953 141.03064 2571 ft 188 kts 175°
2026-05-04 03:13 41.64713 141.03607 2569 ft 184 kts 172°
2026-05-04 03:14 41.63659 141.04604 2612 ft 200 kts 142°
2026-05-04 03:14 41.62986 141.06323 2584 ft 216 kts 112°
2026-05-04 03:14 41.62865 141.08349 2559 ft 225 kts 85°
2026-05-04 03:14 41.63380 141.10302 2608 ft 221 kts 52°
2026-05-04 03:15 41.64529 141.11486 2572 ft 202 kts
2026-05-04 03:15 41.65800 141.11384 2597 ft 170 kts 321°
2026-05-04 03:15 41.66664 141.10483 2569 ft 153 kts 299°
2026-05-04 03:15 41.67297 141.09356 2522 ft 149 kts 291°
2026-05-04 03:16 41.67810 141.08231 2481 ft 132 kts 285°
2026-05-04 03:16 41.68134 141.07147 2455 ft 122 kts 278°
2026-05-04 03:16 41.68406 141.06146 2453 ft 111 kts 277°
2026-05-04 03:16 41.68593 141.05167 2430 ft 105 kts 273°
2026-05-04 03:17 41.68734 141.04228 2434 ft 100 kts 271°
2026-05-04 03:17 41.68850 141.03325 2450 ft 98 kts 271°
2026-05-04 03:17 41.68942 141.02424 2450 ft 97 kts 270°
2026-05-04 03:17 41.69020 141.01538 2441 ft 97 kts 268°
2026-05-04 03:18 41.69086 141.00642 2452 ft 97 kts 269°
2026-05-04 03:18 41.69218 140.99752 2470 ft 97 kts 271°
2026-05-04 03:18 41.69380 140.98861 2453 ft 101 kts 276°
2026-05-04 03:18 41.69646 140.97988 2448 ft 103 kts 283°
2026-05-04 03:19 41.70023 140.97158 2422 ft 108 kts 292°
2026-05-04 03:19 41.70550 140.96420 2439 ft 110 kts 300°
2026-05-04 03:19 41.71095 140.95745 2367 ft 107 kts 300°
2026-05-04 03:19 41.71645 140.95034 2222 ft 112 kts 297°
2026-05-04 03:20 41.72175 140.94236 2119 ft 118 kts 296°
2026-05-04 03:20 41.72671 140.93336 1976 ft 121 kts 291°
2026-05-04 03:20 41.73121 140.92391 1833 ft 119 kts 290°
2026-05-04 03:20 41.73559 140.91445 1649 ft 120 kts 290°
2026-05-04 03:21 41.73981 140.90497 1480 ft 119 kts 289°
2026-05-04 03:21 41.74405 140.89537 1280 ft 120 kts 289°
2026-05-04 03:21 41.74857 140.88570 969 ft 126 kts 291°
2026-05-04 03:21 41.75329 140.87571 795 ft 127 kts 292°
2026-05-04 03:22 41.75811 140.86554 723 ft 132 kts 292°
2026-05-04 03:22 41.76224 140.85447 509 ft 131 kts 284°
2026-05-04 03:22 41.76504 140.84372 294 ft 114 kts 277°
2026-05-04 03:22 41.76731 140.83427 155 ft 97 kts 273°
2026-05-04 03:23 41.76889 140.82680 137 ft 68 kts 278°
2026-05-04 03:23 41.76950 140.82405 132 ft 8 kts 302°
2026-05-04 03:23 41.76951 140.82403 132 ft 0 kts 328°